^^
Station Historical Data
 
Daily Summary for February 22, 2019 Units:  English    Metric   Both
« Previous Day
Next Day »
Daily Weekly Monthly Yearly Custom
  Current: High: Low: Average:
Temperature: -7.9 °F -0.3 °F -8.9 °F -4.6 °F
Dew Point: -11.2 °F -3.0 °F -12.4 °F -7.7 °F
Humidity: 85% 88% 83% 86%
Wind Speed: 1.0mph 4.0mph 0.0mph 0.5mph
Wind Gust: 3.0mph 5.0mph - -
WindESE - - South
Pressure: 30.35 in 30.35 in 30.32 in -
Precipitation: 0.00 in      
Historical Graphs
 
 
Tabular Data for February 22, 2019
Time Temperature Dew Point Pressure Wind Wind Speed Wind Gust Humidity Rainfall Rate (Hourly) solar Conditions
00:04 -2.2 °F -5.1 °F 30.34 in Calm     87% 0.00 in 0.00 W/m2
00:09 -2.2 °F -5.1 °F 30.34 in Calm     87% 0.00 in 0.00 W/m2
00:14 -2.2 °F -5.1 °F 30.34 in Calm     87% 0.00 in 0.00 W/m2
00:19 -2.3 °F -5.2 °F 30.34 in Calm     87% 0.00 in 0.00 W/m2
00:24 -1.8 °F -4.5 °F 30.34 in Calm     88% 0.00 in 0.00 W/m2
00:29 -1.3 °F -4.0 °F 30.34 in Calm     88% 0.00 in 0.00 W/m2
00:34 -1.2 °F -3.9 °F 30.34 in Calm     88% 0.00 in 0.00 W/m2
00:39 -1.0 °F -3.7 °F 30.34 in Calm     88% 0.00 in 0.00 W/m2
00:44 -0.9 °F -3.6 °F 30.34 in Calm     88% 0.00 in 0.00 W/m2
00:49 -0.7 °F -3.4 °F 30.33 in Calm     88% 0.00 in 0.00 W/m2
00:54 -0.4 °F -3.1 °F 30.33 in Calm     88% 0.00 in 0.00 W/m2
00:59 -0.3 °F -3.0 °F 30.33 in Calm     88% 0.00 in 0.00 W/m2
01:04 -0.5 °F -3.2 °F 30.33 in Calm     88% 0.00 in 0.00 W/m2
01:09 -1.9 °F -5.1 °F 30.33 in South 2.0 mph 3.0 mph 86% 0.00 in 0.00 W/m2
01:14 -2.6 °F -5.8 °F 30.34 in South 1.0 mph 3.0 mph 86% 0.00 in 0.00 W/m2
01:19 -2.9 °F -6.0 °F 30.34 in South 2.0 mph 3.0 mph 86% 0.00 in 0.00 W/m2
01:24 -3.2 °F -6.3 °F 30.34 in South 2.0 mph 3.0 mph 86% 0.00 in 0.00 W/m2
01:29 -3.1 °F -6.0 °F 30.33 in South 2.0 mph 3.0 mph 87% 0.00 in 0.00 W/m2
01:34 -2.9 °F -5.8 °F 30.34 in South 2.0 mph 3.0 mph 87% 0.00 in 0.00 W/m2
01:39 -2.7 °F -5.6 °F 30.34 in South 1.0 mph 3.0 mph 87% 0.00 in 0.00 W/m2
01:44 -2.7 °F -5.6 °F 30.34 in South 2.0 mph 2.0 mph 87% 0.00 in 0.00 W/m2
01:49 -2.8 °F -5.7 °F 30.34 in Calm   2.0 mph 87% 0.00 in 0.00 W/m2
01:54 -3.0 °F -6.1 °F 30.34 in Calm   2.0 mph 86% 0.00 in 0.00 W/m2
01:59 -3.2 °F -6.1 °F 30.34 in Calm   1.0 mph 87% 0.00 in 0.00 W/m2
02:04 -3.4 °F -6.5 °F 30.34 in Calm   1.0 mph 86% 0.00 in 0.00 W/m2
02:09 -3.6 °F -6.7 °F 30.34 in Calm     86% 0.00 in 0.00 W/m2
02:14 -3.7 °F -6.8 °F 30.34 in SSW 2.0 mph 2.0 mph 86% 0.00 in 0.00 W/m2
02:19 -3.7 °F -6.8 °F 30.34 in WNW 1.0 mph 2.0 mph 86% 0.00 in 0.00 W/m2
02:24 -3.7 °F -6.8 °F 30.34 in WNW 1.0 mph 2.0 mph 86% 0.00 in 0.00 W/m2
02:29 -3.7 °F -6.8 °F 30.34 in Calm   2.0 mph 86% 0.00 in 0.00 W/m2
02:34 -3.7 °F -6.8 °F 30.34 in Calm   1.0 mph 86% 0.00 in 0.00 W/m2
02:39 -3.7 °F -6.8 °F 30.34 in Calm     86% 0.00 in 0.00 W/m2
02:44 -3.5 °F -6.4 °F 30.34 in Calm     87% 0.00 in 0.00 W/m2
02:49 -3.5 °F -6.4 °F 30.34 in Calm     87% 0.00 in 0.00 W/m2
02:54 -3.5 °F -6.4 °F 30.35 in Calm     87% 0.00 in 0.00 W/m2
02:59 -3.4 °F -6.3 °F 30.35 in Calm     87% 0.00 in 0.00 W/m2
03:04 -3.1 °F -6.0 °F 30.35 in Calm     87% 0.00 in 0.00 W/m2
03:09 -2.8 °F -5.7 °F 30.35 in Calm     87% 0.00 in 0.00 W/m2
03:14 -2.6 °F -5.5 °F 30.35 in Calm     87% 0.00 in 0.00 W/m2
03:19 -2.4 °F -5.3 °F 30.35 in Calm     87% 0.00 in 0.00 W/m2
03:24 -4.4 °F -7.8 °F 30.35 in SSE 1.0 mph 1.0 mph 85% 0.00 in 0.00 W/m2
03:29 -5.6 °F -9.2 °F 30.35 in Calm   1.0 mph 84% 0.00 in 0.00 W/m2
03:34 -5.8 °F -9.1 °F 30.35 in Calm   1.0 mph 85% 0.00 in 0.00 W/m2
03:39 -5.8 °F -8.9 °F 30.35 in Calm     86% 0.00 in 0.00 W/m2
03:44 -5.3 °F -8.4 °F 30.35 in Calm     86% 0.00 in 0.00 W/m2
03:49 -4.9 °F -7.8 °F 30.35 in Calm     87% 0.00 in 0.00 W/m2
03:54 -4.6 °F -7.5 °F 30.34 in Calm     87% 0.00 in 0.00 W/m2
03:59 -3.8 °F -6.5 °F 30.34 in West 1.0 mph 2.0 mph 88% 0.00 in 0.00 W/m2
04:04 -3.4 °F -6.3 °F 30.34 in Calm   2.0 mph 87% 0.00 in 0.00 W/m2
04:09 -3.3 °F -6.2 °F 30.34 in WNW 1.0 mph 2.0 mph 87% 0.00 in 0.00 W/m2
04:14 -3.2 °F -6.1 °F 30.34 in WNW 1.0 mph 2.0 mph 87% 0.00 in 0.00 W/m2
04:19 -3.4 °F -6.5 °F 30.34 in WNW 1.0 mph 2.0 mph 86% 0.00 in 0.00 W/m2
04:24 -3.4 °F -6.3 °F 30.33 in WNW 1.0 mph 1.0 mph 87% 0.00 in 0.00 W/m2
04:29 -3.3 °F -6.2 °F 30.33 in Calm   1.0 mph 87% 0.00 in 0.00 W/m2
04:34 -3.4 °F -6.3 °F 30.33 in Calm   1.0 mph 87% 0.00 in 0.00 W/m2
04:39 -3.8 °F -6.9 °F 30.33 in Calm   1.0 mph 86% 0.00 in 0.00 W/m2
04:44 -5.8 °F -9.6 °F 30.33 in SSE 1.0 mph 2.0 mph 83% 0.00 in 0.00 W/m2
04:49 -6.7 °F -10.3 °F 30.34 in Calm   2.0 mph 84% 0.00 in 0.00 W/m2
04:54 -6.8 °F -10.4 °F 30.33 in Calm   1.0 mph 84% 0.00 in 0.00 W/m2
04:59 -6.4 °F -9.5 °F 30.32 in Calm   1.0 mph 86% 0.00 in 0.00 W/m2
05:04 -6.4 °F -9.7 °F 30.32 in Calm     85% 0.00 in 0.00 W/m2
05:09 -6.3 °F -9.6 °F 30.32 in Calm   1.0 mph 85% 0.00 in 0.00 W/m2
05:14 -6.0 °F -9.1 °F 30.32 in Calm   1.0 mph 86% 0.00 in 0.00 W/m2
05:19 -5.7 °F -8.8 °F 30.33 in Calm     86% 0.00 in 0.00 W/m2
05:24 -5.6 °F -8.7 °F 30.33 in Calm     86% 0.00 in 0.00 W/m2
05:29 -5.6 °F -8.7 °F 30.32 in Calm     86% 0.00 in 0.00 W/m2
05:34 -5.5 °F -8.6 °F 30.33 in Calm     86% 0.00 in 0.00 W/m2
05:39 -5.4 °F -8.5 °F 30.33 in Calm     86% 0.00 in 0.00 W/m2
05:44 -5.5 °F -8.8 °F 30.33 in Calm     85% 0.00 in 0.00 W/m2
05:49 -6.4 °F -10.0 °F 30.33 in Calm     84% 0.00 in 0.00 W/m2
05:54 -6.9 °F -10.5 °F 30.33 in Calm     84% 0.00 in 0.00 W/m2
05:59 -6.6 °F -9.9 °F 30.32 in Calm     85% 0.00 in 0.00 W/m2
06:04 -6.3 °F -9.4 °F 30.33 in Calm     86% 0.00 in 0.00 W/m2
06:09 -6.7 °F -10.0 °F 30.33 in Calm     85% 0.00 in 0.00 W/m2
06:14 -6.3 °F -9.6 °F 30.32 in Calm     85% 0.00 in 0.00 W/m2
06:19 -5.4 °F -8.3 °F 30.33 in Calm     87% 0.00 in 0.00 W/m2
06:24 -5.6 °F -8.9 °F 30.32 in Calm     85% 0.00 in 0.00 W/m2
06:29 -5.4 °F -8.5 °F 30.33 in Calm     86% 0.00 in 0.00 W/m2
06:34 -5.5 °F -8.8 °F 30.33 in Calm     85% 0.00 in 0.00 W/m2
06:39 -5.7 °F -9.0 °F 30.32 in Calm     85% 0.00 in 0.00 W/m2
06:44 -5.7 °F -9.0 °F 30.33 in Calm     85% 0.00 in 0.00 W/m2
06:49 -5.8 °F -9.1 °F 30.33 in Calm     85% 0.00 in 0.00 W/m2
06:54 -5.5 °F -8.6 °F 30.33 in Calm     86% 0.00 in 0.00 W/m2
06:59 -5.8 °F -9.1 °F 30.33 in Calm     85% 0.00 in 0.00 W/m2
07:04 -6.2 °F -9.8 °F 30.33 in Calm     84% 0.00 in 0.00 W/m2
07:09 -6.6 °F -10.2 °F 30.34 in ESE 2.0 mph 3.0 mph 84% 0.00 in 0.00 W/m2
07:14 -6.6 °F -9.9 °F 30.34 in SE 2.0 mph 3.0 mph 85% 0.00 in 0.00 W/m2
07:19 -6.6 °F -9.9 °F 30.34 in Calm   3.0 mph 85% 0.00 in 0.00 W/m2
07:24 -6.5 °F -9.8 °F 30.34 in SE 1.0 mph 2.0 mph 85% 0.00 in 0.00 W/m2
07:29 -6.3 °F -9.6 °F 30.34 in Calm   2.0 mph 85% 0.00 in 0.00 W/m2
07:34 -6.0 °F -9.3 °F 30.34 in Calm   2.0 mph 85% 0.00 in 5.00 W/m2
07:39 -5.9 °F -9.2 °F 30.34 in Calm     85% 0.00 in 7.00 W/m2
07:44 -5.7 °F -9.0 °F 30.34 in Calm     85% 0.00 in 9.00 W/m2
07:49 -6.1 °F -9.4 °F 30.34 in SSE 1.0 mph 4.0 mph 85% 0.00 in 12.00 W/m2
07:54 -7.0 °F -10.6 °F 30.34 in SE 2.0 mph 4.0 mph 84% 0.00 in 14.00 W/m2
07:59 -7.5 °F -11.1 °F 30.34 in SE 2.0 mph 3.0 mph 84% 0.00 in 18.00 W/m2
08:04 -8.0 °F -11.5 °F 30.35 in SE 4.0 mph 4.0 mph 84% 0.00 in 19.00 W/m2
08:09 -8.4 °F -11.9 °F 30.35 in SE 3.0 mph 5.0 mph 84% 0.00 in 25.00 W/m2
08:14 -8.8 °F -12.3 °F 30.35 in ESE 4.0 mph 5.0 mph 84% 0.00 in 32.00 W/m2
08:19 -8.9 °F -12.4 °F 30.35 in ESE 2.0 mph 5.0 mph 84% 0.00 in 40.00 W/m2
08:24 -8.7 °F -12.2 °F 30.35 in Calm   4.0 mph 84% 0.00 in 53.00 W/m2
08:29 -8.3 °F -11.6 °F 30.35 in ESE 1.0 mph 3.0 mph 85% 0.00 in 56.00 W/m2
08:34 -7.9 °F -11.2 °F 30.35 in ESE 1.0 mph 3.0 mph 85% 0.00 in 56.00 W/m2
Bismarck, North Dakota, USA
Compliments of Weather Underground - 4 mb